sensor_id;sensor_type;location;lat;lon;timestamp;P1;durP1;ratioP1;P2;durP2;ratioP2
52386;SDS011;38317;53.084;6.960;2023-01-10T00:00:33;6.53;;;1.00;;
52386;SDS011;38317;53.084;6.960;2023-01-10T00:03:08;4.95;;;0.82;;
52386;SDS011;38317;53.084;6.960;2023-01-10T00:05:35;3.28;;;0.65;;
52386;SDS011;38317;53.084;6.960;2023-01-10T00:08:02;4.75;;;0.90;;
52386;SDS011;38317;53.084;6.960;2023-01-10T00:10:28;4.13;;;0.60;;
52386;SDS011;38317;53.084;6.960;2023-01-10T00:12:54;3.53;;;0.82;;
52386;SDS011;38317;53.084;6.960;2023-01-10T00:15:38;6.07;;;0.93;;
52386;SDS011;38317;53.084;6.960;2023-01-10T00:18:04;4.22;;;0.85;;
52386;SDS011;38317;53.084;6.960;2023-01-10T00:20:30;10.45;;;0.95;;
52386;SDS011;38317;53.084;6.960;2023-01-10T00:22:56;3.70;;;1.00;;
52386;SDS011;38317;53.084;6.960;2023-01-10T00:25:22;5.00;;;1.23;;
52386;SDS011;38317;53.084;6.960;2023-01-10T00:27:48;10.07;;;1.25;;
52386;SDS011;38317;53.084;6.960;2023-01-10T00:30:19;5.90;;;0.80;;
52386;SDS011;38317;53.084;6.960;2023-01-10T00:32:45;6.57;;;0.73;;
52386;SDS011;38317;53.084;6.960;2023-01-10T00:35:11;4.50;;;1.23;;
52386;SDS011;38317;53.084;6.960;2023-01-10T00:37:37;3.67;;;0.52;;
52386;SDS011;38317;53.084;6.960;2023-01-10T00:40:04;3.97;;;1.00;;
52386;SDS011;38317;53.084;6.960;2023-01-10T00:42:33;5.80;;;0.82;;
52386;SDS011;38317;53.084;6.960;2023-01-10T00:45:18;4.43;;;1.33;;
52386;SDS011;38317;53.084;6.960;2023-01-10T00:47:44;5.75;;;0.70;;
52386;SDS011;38317;53.084;6.960;2023-01-10T00:50:10;4.38;;;1.08;;
52386;SDS011;38317;53.084;6.960;2023-01-10T00:52:36;3.05;;;0.60;;
52386;SDS011;38317;53.084;6.960;2023-01-10T00:55:02;3.53;;;0.73;;
52386;SDS011;38317;53.084;6.960;2023-01-10T00:57:28;8.13;;;1.10;;
52386;SDS011;38317;53.084;6.960;2023-01-10T00:59:53;4.85;;;0.77;;
52386;SDS011;38317;53.084;6.960;2023-01-10T01:02:19;5.22;;;0.95;;
52386;SDS011;38317;53.084;6.960;2023-01-10T01:04:45;9.10;;;1.17;;
52386;SDS011;38317;53.084;6.960;2023-01-10T01:07:11;6.20;;;1.23;;
52386;SDS011;38317;53.084;6.960;2023-01-10T01:09:37;14.57;;;1.40;;
52386;SDS011;38317;53.084;6.960;2023-01-10T01:12:22;8.68;;;1.42;;
52386;SDS011;38317;53.084;6.960;2023-01-10T01:14:48;5.07;;;1.38;;
52386;SDS011;38317;53.084;6.960;2023-01-10T01:17:14;7.80;;;1.17;;
52386;SDS011;38317;53.084;6.960;2023-01-10T01:19:40;3.95;;;0.70;;
52386;SDS011;38317;53.084;6.960;2023-01-10T01:22:05;13.48;;;2.30;;
52386;SDS011;38317;53.084;6.960;2023-01-10T01:24:31;5.07;;;0.70;;
52386;SDS011;38317;53.084;6.960;2023-01-10T01:26:57;5.85;;;0.93;;
52386;SDS011;38317;53.084;6.960;2023-01-10T01:29:23;8.60;;;1.00;;
52386;SDS011;38317;53.084;6.960;2023-01-10T01:31:49;8.50;;;0.98;;
52386;SDS011;38317;53.084;6.960;2023-01-10T01:34:15;7.93;;;1.38;;
52386;SDS011;38317;53.084;6.960;2023-01-10T01:36:40;8.23;;;1.23;;
52386;SDS011;38317;53.084;6.960;2023-01-10T01:39:06;5.35;;;0.80;;
52386;SDS011;38317;53.084;6.960;2023-01-10T01:41:32;8.65;;;1.38;;
52386;SDS011;38317;53.084;6.960;2023-01-10T01:44:16;7.93;;;1.10;;
52386;SDS011;38317;53.084;6.960;2023-01-10T01:46:51;4.03;;;0.50;;
52386;SDS011;38317;53.084;6.960;2023-01-10T01:49:27;7.93;;;1.40;;
52386;SDS011;38317;53.084;6.960;2023-01-10T01:51:57;8.00;;;1.70;;
52386;SDS011;38317;53.084;6.960;2023-01-10T01:54:25;8.27;;;1.52;;
52386;SDS011;38317;53.084;6.960;2023-01-10T01:56:55;9.32;;;1.02;;
52386;SDS011;38317;53.084;6.960;2023-01-10T01:59:27;10.93;;;1.65;;
52386;SDS011;38317;53.084;6.960;2023-01-10T02:02:14;9.40;;;1.33;;
52386;SDS011;38317;53.084;6.960;2023-01-10T02:04:54;9.70;;;1.52;;
52386;SDS011;38317;53.084;6.960;2023-01-10T02:07:25;9.15;;;1.10;;
52386;SDS011;38317;53.084;6.960;2023-01-10T02:09:57;11.43;;;1.52;;
52386;SDS011;38317;53.084;6.960;2023-01-10T02:12:33;9.32;;;1.23;;
52386;SDS011;38317;53.084;6.960;2023-01-10T02:15:00;9.75;;;1.60;;
52386;SDS011;38317;53.084;6.960;2023-01-10T02:17:27;9.23;;;1.30;;
52386;SDS011;38317;53.084;6.960;2023-01-10T02:19:56;6.22;;;1.17;;
52386;SDS011;38317;53.084;6.960;2023-01-10T02:36:29;7.25;;;0.95;;
52386;SDS011;38317;53.084;6.960;2023-01-10T02:39:07;6.80;;;1.13;;
52386;SDS011;38317;53.084;6.960;2023-01-10T02:41:56;7.35;;;1.08;;
52386;SDS011;38317;53.084;6.960;2023-01-10T02:49:48;11.55;;;1.10;;
52386;SDS011;38317;53.084;6.960;2023-01-10T02:52:20;9.75;;;1.58;;
52386;SDS011;38317;53.084;6.960;2023-01-10T02:54:51;15.75;;;2.63;;
52386;SDS011;38317;53.084;6.960;2023-01-10T02:57:42;5.97;;;0.85;;
52386;SDS011;38317;53.084;6.960;2023-01-10T03:00:38;6.72;;;1.20;;
52386;SDS011;38317;53.084;6.960;2023-01-10T03:05:54;12.68;;;1.13;;
52386;SDS011;38317;53.084;6.960;2023-01-10T03:11:12;6.00;;;1.35;;
52386;SDS011;38317;53.084;6.960;2023-01-10T03:16:18;5.20;;;1.02;;
52386;SDS011;38317;53.084;6.960;2023-01-10T03:18:50;7.28;;;0.93;;
52386;SDS011;38317;53.084;6.960;2023-01-10T03:21:21;6.78;;;1.40;;
52386;SDS011;38317;53.084;6.960;2023-01-10T03:23:49;8.43;;;1.92;;
52386;SDS011;38317;53.084;6.960;2023-01-10T03:26:19;6.55;;;1.23;;
52386;SDS011;38317;53.084;6.960;2023-01-10T03:28:59;10.38;;;1.30;;
52386;SDS011;38317;53.084;6.960;2023-01-10T03:31:41;4.90;;;0.90;;
52386;SDS011;38317;53.084;6.960;2023-01-10T03:34:13;10.25;;;1.38;;
52386;SDS011;38317;53.084;6.960;2023-01-10T03:50:07;7.82;;;1.63;;
52386;SDS011;38317;53.084;6.960;2023-01-10T03:52:39;6.68;;;1.25;;
52386;SDS011;38317;53.084;6.960;2023-01-10T03:55:09;9.73;;;0.98;;
52386;SDS011;38317;53.084;6.960;2023-01-10T03:57:41;10.45;;;1.80;;
52386;SDS011;38317;53.084;6.960;2023-01-10T04:00:09;6.22;;;0.88;;
52386;SDS011;38317;53.084;6.960;2023-01-10T04:02:37;7.30;;;1.33;;
52386;SDS011;38317;53.084;6.960;2023-01-10T04:05:03;12.13;;;1.42;;
52386;SDS011;38317;53.084;6.960;2023-01-10T04:07:29;5.80;;;1.02;;
52386;SDS011;38317;53.084;6.960;2023-01-10T04:09:55;7.93;;;1.05;;
52386;SDS011;38317;53.084;6.960;2023-01-10T04:12:21;9.15;;;1.63;;
52386;SDS011;38317;53.084;6.960;2023-01-10T04:14:47;7.85;;;1.15;;
52386;SDS011;38317;53.084;6.960;2023-01-10T04:17:13;7.78;;;1.02;;
52386;SDS011;38317;53.084;6.960;2023-01-10T04:19:40;10.15;;;1.30;;
52386;SDS011;38317;53.084;6.960;2023-01-10T04:22:06;8.05;;;1.27;;
52386;SDS011;38317;53.084;6.960;2023-01-10T04:24:33;5.70;;;0.95;;
52386;SDS011;38317;53.084;6.960;2023-01-10T04:26:58;9.60;;;1.70;;
52386;SDS011;38317;53.084;6.960;2023-01-10T04:29:24;7.65;;;1.13;;
52386;SDS011;38317;53.084;6.960;2023-01-10T04:31:51;12.48;;;1.27;;
52386;SDS011;38317;53.084;6.960;2023-01-10T04:34:17;10.80;;;1.58;;
52386;SDS011;38317;53.084;6.960;2023-01-10T04:36:47;9.40;;;1.67;;
52386;SDS011;38317;53.084;6.960;2023-01-10T04:39:13;9.23;;;1.77;;
52386;SDS011;38317;53.084;6.960;2023-01-10T04:41:39;9.70;;;1.67;;
52386;SDS011;38317;53.084;6.960;2023-01-10T04:44:05;10.43;;;1.70;;
52386;SDS011;38317;53.084;6.960;2023-01-10T04:46:31;8.48;;;1.52;;
52386;SDS011;38317;53.084;6.960;2023-01-10T04:48:57;10.55;;;1.58;;
52386;SDS011;38317;53.084;6.960;2023-01-10T04:51:26;8.00;;;1.13;;
52386;SDS011;38317;53.084;6.960;2023-01-10T04:53:52;9.77;;;1.52;;
52386;SDS011;38317;53.084;6.960;2023-01-10T04:56:20;14.43;;;2.15;;
52386;SDS011;38317;53.084;6.960;2023-01-10T04:58:47;7.45;;;1.10;;
52386;SDS011;38317;53.084;6.960;2023-01-10T05:01:14;9.68;;;2.17;;
52386;SDS011;38317;53.084;6.960;2023-01-10T05:03:41;6.35;;;1.35;;
52386;SDS011;38317;53.084;6.960;2023-01-10T05:06:07;4.88;;;1.00;;
52386;SDS011;38317;53.084;6.960;2023-01-10T05:08:34;8.32;;;1.05;;
52386;SDS011;38317;53.084;6.960;2023-01-10T05:11:00;8.00;;;1.98;;
52386;SDS011;38317;53.084;6.960;2023-01-10T05:13:25;6.53;;;1.25;;
52386;SDS011;38317;53.084;6.960;2023-01-10T05:15:55;9.35;;;1.35;;
52386;SDS011;38317;53.084;6.960;2023-01-10T05:18:22;7.13;;;1.48;;
52386;SDS011;38317;53.084;6.960;2023-01-10T05:20:48;8.77;;;1.40;;
52386;SDS011;38317;53.084;6.960;2023-01-10T05:23:14;8.30;;;1.35;;
52386;SDS011;38317;53.084;6.960;2023-01-10T05:25:40;5.32;;;1.27;;
52386;SDS011;38317;53.084;6.960;2023-01-10T05:28:06;5.65;;;1.02;;
52386;SDS011;38317;53.084;6.960;2023-01-10T05:30:32;10.05;;;1.63;;
52386;SDS011;38317;53.084;6.960;2023-01-10T05:32:58;8.05;;;1.52;;
52386;SDS011;38317;53.084;6.960;2023-01-10T05:35:23;7.45;;;1.83;;
52386;SDS011;38317;53.084;6.960;2023-01-10T05:37:49;8.10;;;1.85;;
52386;SDS011;38317;53.084;6.960;2023-01-10T05:40:15;7.20;;;1.65;;
52386;SDS011;38317;53.084;6.960;2023-01-10T05:42:41;9.00;;;1.58;;
52386;SDS011;38317;53.084;6.960;2023-01-10T05:45:07;7.13;;;1.70;;
52386;SDS011;38317;53.084;6.960;2023-01-10T05:47:33;8.70;;;1.90;;
52386;SDS011;38317;53.084;6.960;2023-01-10T05:49:59;9.70;;;1.80;;
52386;SDS011;38317;53.084;6.960;2023-01-10T05:52:25;10.30;;;1.80;;
52386;SDS011;38317;53.084;6.960;2023-01-10T05:54:50;7.75;;;1.42;;
52386;SDS011;38317;53.084;6.960;2023-01-10T05:57:16;7.70;;;1.40;;
52386;SDS011;38317;53.084;6.960;2023-01-10T05:59:43;15.80;;;1.92;;
52386;SDS011;38317;53.084;6.960;2023-01-10T06:02:09;6.03;;;1.65;;
52386;SDS011;38317;53.084;6.960;2023-01-10T06:04:34;14.32;;;2.75;;
52386;SDS011;38317;53.084;6.960;2023-01-10T06:07:00;10.57;;;1.48;;
52386;SDS011;38317;53.084;6.960;2023-01-10T06:09:26;9.70;;;2.10;;
52386;SDS011;38317;53.084;6.960;2023-01-10T06:11:52;11.98;;;2.20;;
52386;SDS011;38317;53.084;6.960;2023-01-10T06:14:17;12.63;;;1.58;;
52386;SDS011;38317;53.084;6.960;2023-01-10T06:16:46;10.57;;;1.92;;
52386;SDS011;38317;53.084;6.960;2023-01-10T06:19:12;10.18;;;2.08;;
52386;SDS011;38317;53.084;6.960;2023-01-10T06:21:38;15.75;;;2.00;;
52386;SDS011;38317;53.084;6.960;2023-01-10T06:24:04;13.02;;;1.98;;
52386;SDS011;38317;53.084;6.960;2023-01-10T06:26:30;8.23;;;1.42;;
52386;SDS011;38317;53.084;6.960;2023-01-10T06:28:56;11.23;;;1.65;;
52386;SDS011;38317;53.084;6.960;2023-01-10T06:31:23;10.90;;;2.05;;
52386;SDS011;38317;53.084;6.960;2023-01-10T06:33:50;7.95;;;1.75;;
52386;SDS011;38317;53.084;6.960;2023-01-10T06:36:19;7.45;;;1.23;;
52386;SDS011;38317;53.084;6.960;2023-01-10T06:38:45;9.00;;;1.95;;
52386;SDS011;38317;53.084;6.960;2023-01-10T06:41:11;9.75;;;2.10;;
52386;SDS011;38317;53.084;6.960;2023-01-10T06:43:43;5.00;;;1.40;;
52386;SDS011;38317;53.084;6.960;2023-01-10T06:46:13;11.38;;;2.13;;
52386;SDS011;38317;53.084;6.960;2023-01-10T06:48:41;8.05;;;1.10;;
52386;SDS011;38317;53.084;6.960;2023-01-10T06:51:11;8.30;;;1.95;;
52386;SDS011;38317;53.084;6.960;2023-01-10T06:53:38;8.68;;;1.52;;
52386;SDS011;38317;53.084;6.960;2023-01-10T06:56:04;11.43;;;2.22;;
52386;SDS011;38317;53.084;6.960;2023-01-10T06:58:30;8.05;;;1.55;;
52386;SDS011;38317;53.084;6.960;2023-01-10T07:00:56;8.93;;;1.65;;
52386;SDS011;38317;53.084;6.960;2023-01-10T07:03:22;12.30;;;1.67;;
52386;SDS011;38317;53.084;6.960;2023-01-10T07:05:48;8.32;;;1.30;;
52386;SDS011;38317;53.084;6.960;2023-01-10T07:08:14;5.88;;;1.40;;
52386;SDS011;38317;53.084;6.960;2023-01-10T07:10:40;10.43;;;2.28;;
52386;SDS011;38317;53.084;6.960;2023-01-10T07:13:07;10.63;;;1.90;;
52386;SDS011;38317;53.084;6.960;2023-01-10T07:15:33;8.93;;;1.83;;
52386;SDS011;38317;53.084;6.960;2023-01-10T07:17:59;7.72;;;1.40;;
52386;SDS011;38317;53.084;6.960;2023-01-10T07:20:25;7.47;;;1.75;;
52386;SDS011;38317;53.084;6.960;2023-01-10T07:22:55;7.13;;;1.40;;
52386;SDS011;38317;53.084;6.960;2023-01-10T07:25:22;10.27;;;2.08;;
52386;SDS011;38317;53.084;6.960;2023-01-10T07:27:49;8.10;;;2.88;;
52386;SDS011;38317;53.084;6.960;2023-01-10T07:30:14;12.25;;;2.30;;
52386;SDS011;38317;53.084;6.960;2023-01-10T07:32:40;5.90;;;1.63;;
52386;SDS011;38317;53.084;6.960;2023-01-10T07:35:06;8.55;;;2.17;;
52386;SDS011;38317;53.084;6.960;2023-01-10T07:37:32;11.48;;;1.83;;
52386;SDS011;38317;53.084;6.960;2023-01-10T07:39:58;6.55;;;1.65;;
52386;SDS011;38317;53.084;6.960;2023-01-10T07:42:24;10.30;;;2.25;;
52386;SDS011;38317;53.084;6.960;2023-01-10T07:44:50;12.30;;;2.05;;
52386;SDS011;38317;53.084;6.960;2023-01-10T07:47:15;7.85;;;2.00;;
52386;SDS011;38317;53.084;6.960;2023-01-10T07:49:41;14.20;;;3.05;;
52386;SDS011;38317;53.084;6.960;2023-01-10T07:52:07;14.38;;;2.88;;
52386;SDS011;38317;53.084;6.960;2023-01-10T07:54:33;12.50;;;2.40;;
52386;SDS011;38317;53.084;6.960;2023-01-10T07:57:00;12.98;;;2.42;;
52386;SDS011;38317;53.084;6.960;2023-01-10T07:59:26;15.00;;;4.05;;
52386;SDS011;38317;53.084;6.960;2023-01-10T08:01:51;9.70;;;2.25;;
52386;SDS011;38317;53.084;6.960;2023-01-10T08:04:18;14.85;;;2.83;;
52386;SDS011;38317;53.084;6.960;2023-01-10T08:06:44;10.50;;;2.55;;
52386;SDS011;38317;53.084;6.960;2023-01-10T08:09:10;10.88;;;2.63;;
52386;SDS011;38317;53.084;6.960;2023-01-10T08:11:36;14.73;;;2.35;;
52386;SDS011;38317;53.084;6.960;2023-01-10T08:14:01;10.60;;;1.80;;
52386;SDS011;38317;53.084;6.960;2023-01-10T08:16:27;13.18;;;3.05;;
52386;SDS011;38317;53.084;6.960;2023-01-10T08:18:53;14.10;;;2.70;;
52386;SDS011;38317;53.084;6.960;2023-01-10T08:21:19;11.63;;;2.85;;
52386;SDS011;38317;53.084;6.960;2023-01-10T08:23:44;15.15;;;2.75;;
52386;SDS011;38317;53.084;6.960;2023-01-10T08:26:10;11.38;;;2.40;;
52386;SDS011;38317;53.084;6.960;2023-01-10T08:28:36;16.35;;;3.03;;
52386;SDS011;38317;53.084;6.960;2023-01-10T08:31:06;11.38;;;3.08;;
52386;SDS011;38317;53.084;6.960;2023-01-10T08:33:33;14.73;;;2.40;;
52386;SDS011;38317;53.084;6.960;2023-01-10T08:35:59;12.27;;;2.20;;
52386;SDS011;38317;53.084;6.960;2023-01-10T08:38:24;15.00;;;3.00;;
52386;SDS011;38317;53.084;6.960;2023-01-10T08:40:50;14.63;;;3.40;;
52386;SDS011;38317;53.084;6.960;2023-01-10T08:43:16;12.02;;;2.33;;
52386;SDS011;38317;53.084;6.960;2023-01-10T08:45:41;9.38;;;2.28;;
52386;SDS011;38317;53.084;6.960;2023-01-10T08:48:08;9.68;;;1.90;;
52386;SDS011;38317;53.084;6.960;2023-01-10T08:50:34;15.43;;;3.58;;
52386;SDS011;38317;53.084;6.960;2023-01-10T08:53:00;11.95;;;2.00;;
52386;SDS011;38317;53.084;6.960;2023-01-10T08:55:26;13.07;;;2.95;;
52386;SDS011;38317;53.084;6.960;2023-01-10T08:57:55;15.50;;;2.70;;
52386;SDS011;38317;53.084;6.960;2023-01-10T09:00:23;12.55;;;2.35;;
52386;SDS011;38317;53.084;6.960;2023-01-10T09:02:48;11.13;;;2.55;;
52386;SDS011;38317;53.084;6.960;2023-01-10T09:05:14;12.82;;;2.38;;
52386;SDS011;38317;53.084;6.960;2023-01-10T09:07:40;8.75;;;1.90;;
52386;SDS011;38317;53.084;6.960;2023-01-10T09:10:06;12.82;;;2.13;;
52386;SDS011;38317;53.084;6.960;2023-01-10T09:12:33;9.60;;;2.35;;
52386;SDS011;38317;53.084;6.960;2023-01-10T09:15:18;10.48;;;2.15;;
52386;SDS011;38317;53.084;6.960;2023-01-10T09:17:43;10.52;;;2.50;;
52386;SDS011;38317;53.084;6.960;2023-01-10T09:20:09;11.20;;;2.00;;
52386;SDS011;38317;53.084;6.960;2023-01-10T09:22:38;8.98;;;1.85;;
52386;SDS011;38317;53.084;6.960;2023-01-10T09:25:04;14.68;;;3.20;;
52386;SDS011;38317;53.084;6.960;2023-01-10T09:27:31;15.90;;;2.85;;
52386;SDS011;38317;53.084;6.960;2023-01-10T09:29:57;14.55;;;2.05;;
52386;SDS011;38317;53.084;6.960;2023-01-10T09:32:22;12.00;;;2.67;;
52386;SDS011;38317;53.084;6.960;2023-01-10T09:34:49;16.25;;;2.50;;
52386;SDS011;38317;53.084;6.960;2023-01-10T09:37:14;9.10;;;2.17;;
52386;SDS011;38317;53.084;6.960;2023-01-10T09:39:40;8.13;;;2.15;;
52386;SDS011;38317;53.084;6.960;2023-01-10T09:47:57;10.00;;;1.95;;
52386;SDS011;38317;53.084;6.960;2023-01-10T09:53:33;14.32;;;2.65;;
52386;SDS011;38317;53.084;6.960;2023-01-10T09:56:00;13.68;;;2.22;;
52386;SDS011;38317;53.084;6.960;2023-01-10T09:58:27;8.15;;;2.03;;
52386;SDS011;38317;53.084;6.960;2023-01-10T10:00:56;15.45;;;3.17;;
52386;SDS011;38317;53.084;6.960;2023-01-10T10:03:47;13.93;;;2.42;;
52386;SDS011;38317;53.084;6.960;2023-01-10T10:06:11;14.55;;;2.30;;
52386;SDS011;38317;53.084;6.960;2023-01-10T10:08:39;12.80;;;2.13;;
52386;SDS011;38317;53.084;6.960;2023-01-10T10:11:25;12.70;;;2.38;;
52386;SDS011;38317;53.084;6.960;2023-01-10T10:20:04;13.82;;;2.47;;
52386;SDS011;38317;53.084;6.960;2023-01-10T10:26:04;9.50;;;1.80;;
52386;SDS011;38317;53.084;6.960;2023-01-10T10:36:41;10.75;;;2.13;;
52386;SDS011;38317;53.084;6.960;2023-01-10T10:39:16;11.43;;;2.47;;
52386;SDS011;38317;53.084;6.960;2023-01-10T10:41:47;12.60;;;2.47;;
52386;SDS011;38317;53.084;6.960;2023-01-10T10:44:29;13.02;;;2.58;;
52386;SDS011;38317;53.084;6.960;2023-01-10T10:47:00;10.63;;;2.42;;
52386;SDS011;38317;53.084;6.960;2023-01-10T10:52:25;9.77;;;2.22;;
52386;SDS011;38317;53.084;6.960;2023-01-10T10:54:55;14.30;;;2.42;;
52386;SDS011;38317;53.084;6.960;2023-01-10T10:57:23;12.25;;;2.47;;
52386;SDS011;38317;53.084;6.960;2023-01-10T10:59:52;11.35;;;2.47;;
52386;SDS011;38317;53.084;6.960;2023-01-10T11:04:58;15.45;;;3.13;;
52386;SDS011;38317;53.084;6.960;2023-01-10T11:07:33;11.55;;;2.60;;
52386;SDS011;38317;53.084;6.960;2023-01-10T11:10:02;9.23;;;2.22;;
52386;SDS011;38317;53.084;6.960;2023-01-10T11:12:35;14.93;;;3.15;;
52386;SDS011;38317;53.084;6.960;2023-01-10T11:15:06;16.75;;;3.72;;
52386;SDS011;38317;53.084;6.960;2023-01-10T11:17:32;16.33;;;3.33;;
52386;SDS011;38317;53.084;6.960;2023-01-10T11:20:06;16.95;;;3.22;;
52386;SDS011;38317;53.084;6.960;2023-01-10T11:22:50;13.02;;;3.17;;
52386;SDS011;38317;53.084;6.960;2023-01-10T11:25:20;15.25;;;4.03;;
52386;SDS011;38317;53.084;6.960;2023-01-10T11:30:21;15.25;;;3.88;;
52386;SDS011;38317;53.084;6.960;2023-01-10T11:32:56;18.80;;;4.10;;
52386;SDS011;38317;53.084;6.960;2023-01-10T11:38:02;13.18;;;3.47;;
52386;SDS011;38317;53.084;6.960;2023-01-10T11:40:30;16.50;;;4.18;;
52386;SDS011;38317;53.084;6.960;2023-01-10T11:42:57;12.25;;;3.60;;
52386;SDS011;38317;53.084;6.960;2023-01-10T11:45:25;12.73;;;3.90;;
52386;SDS011;38317;53.084;6.960;2023-01-10T11:47:54;19.20;;;3.97;;
52386;SDS011;38317;53.084;6.960;2023-01-10T11:50:31;22.85;;;4.10;;
52386;SDS011;38317;53.084;6.960;2023-01-10T11:52:59;16.95;;;4.55;;
52386;SDS011;38317;53.084;6.960;2023-01-10T11:55:26;15.30;;;4.75;;
52386;SDS011;38317;53.084;6.960;2023-01-10T12:00:34;14.65;;;4.10;;
52386;SDS011;38317;53.084;6.960;2023-01-10T12:05:52;18.85;;;4.07;;
52386;SDS011;38317;53.084;6.960;2023-01-10T12:08:39;19.23;;;4.82;;
52386;SDS011;38317;53.084;6.960;2023-01-10T12:13:48;17.63;;;4.38;;
52386;SDS011;38317;53.084;6.960;2023-01-10T12:16:31;15.70;;;3.78;;
52386;SDS011;38317;53.084;6.960;2023-01-10T12:18:59;17.33;;;4.22;;
52386;SDS011;38317;53.084;6.960;2023-01-10T12:26:56;15.90;;;3.75;;
52386;SDS011;38317;53.084;6.960;2023-01-10T12:29:24;16.05;;;3.63;;
52386;SDS011;38317;53.084;6.960;2023-01-10T12:31:53;17.35;;;3.58;;
52386;SDS011;38317;53.084;6.960;2023-01-10T12:34:23;15.90;;;3.38;;
52386;SDS011;38317;53.084;6.960;2023-01-10T12:37:11;14.70;;;3.25;;
52386;SDS011;38317;53.084;6.960;2023-01-10T12:39:44;14.45;;;3.05;;
52386;SDS011;38317;53.084;6.960;2023-01-10T12:42:16;14.50;;;3.08;;
52386;SDS011;38317;53.084;6.960;2023-01-10T12:45:23;15.65;;;3.53;;
52386;SDS011;38317;53.084;6.960;2023-01-10T12:48:02;19.40;;;3.33;;
52386;SDS011;38317;53.084;6.960;2023-01-10T12:50:42;14.73;;;4.05;;
52386;SDS011;38317;53.084;6.960;2023-01-10T12:53:32;18.00;;;4.07;;
52386;SDS011;38317;53.084;6.960;2023-01-10T12:56:04;12.00;;;3.45;;
52386;SDS011;38317;53.084;6.960;2023-01-10T12:58:37;17.02;;;3.20;;
52386;SDS011;38317;53.084;6.960;2023-01-10T13:01:04;15.45;;;3.97;;
52386;SDS011;38317;53.084;6.960;2023-01-10T13:03:32;14.02;;;3.38;;
52386;SDS011;38317;53.084;6.960;2023-01-10T13:05:59;12.98;;;2.65;;
52386;SDS011;38317;53.084;6.960;2023-01-10T13:08:27;13.85;;;2.50;;
52386;SDS011;38317;53.084;6.960;2023-01-10T13:11:00;13.77;;;2.58;;
52386;SDS011;38317;53.084;6.960;2023-01-10T13:13:31;16.77;;;3.17;;
52386;SDS011;38317;53.084;6.960;2023-01-10T13:21:45;15.57;;;2.95;;
52386;SDS011;38317;53.084;6.960;2023-01-10T13:26:54;13.68;;;2.78;;
52386;SDS011;38317;53.084;6.960;2023-01-10T13:29:39;17.38;;;2.95;;
52386;SDS011;38317;53.084;6.960;2023-01-10T13:32:20;13.60;;;2.95;;
52386;SDS011;38317;53.084;6.960;2023-01-10T13:34:47;15.48;;;2.38;;
52386;SDS011;38317;53.084;6.960;2023-01-10T13:37:20;13.43;;;2.35;;
52386;SDS011;38317;53.084;6.960;2023-01-10T13:39:56;16.33;;;3.20;;
52386;SDS011;38317;53.084;6.960;2023-01-10T13:42:31;15.68;;;2.63;;
52386;SDS011;38317;53.084;6.960;2023-01-10T13:45:17;18.08;;;3.38;;
52386;SDS011;38317;53.084;6.960;2023-01-10T14:03:36;13.80;;;2.67;;
52386;SDS011;38317;53.084;6.960;2023-01-10T14:16:55;18.60;;;2.63;;
52386;SDS011;38317;53.084;6.960;2023-01-10T14:19:34;17.75;;;2.58;;
52386;SDS011;38317;53.084;6.960;2023-01-10T14:22:01;18.73;;;3.33;;
52386;SDS011;38317;53.084;6.960;2023-01-10T14:24:29;12.98;;;2.42;;
52386;SDS011;38317;53.084;6.960;2023-01-10T14:27:04;12.35;;;2.80;;
52386;SDS011;38317;53.084;6.960;2023-01-10T14:29:37;14.90;;;2.88;;
52386;SDS011;38317;53.084;6.960;2023-01-10T14:32:03;14.25;;;2.42;;
52386;SDS011;38317;53.084;6.960;2023-01-10T14:34:39;17.00;;;2.80;;
52386;SDS011;38317;53.084;6.960;2023-01-10T14:37:19;14.63;;;2.38;;
52386;SDS011;38317;53.084;6.960;2023-01-10T14:39:53;20.88;;;2.53;;
52386;SDS011;38317;53.084;6.960;2023-01-10T14:42:20;11.77;;;2.05;;
52386;SDS011;38317;53.084;6.960;2023-01-10T14:44:54;12.65;;;2.65;;
52386;SDS011;38317;53.084;6.960;2023-01-10T14:47:43;14.60;;;3.03;;
52386;SDS011;38317;53.084;6.960;2023-01-10T14:50:24;16.20;;;3.05;;
52386;SDS011;38317;53.084;6.960;2023-01-10T14:52:56;13.25;;;2.58;;
52386;SDS011;38317;53.084;6.960;2023-01-10T14:55:23;12.95;;;2.25;;
52386;SDS011;38317;53.084;6.960;2023-01-10T14:57:53;15.82;;;2.28;;
52386;SDS011;38317;53.084;6.960;2023-01-10T15:00:24;14.55;;;2.38;;
52386;SDS011;38317;53.084;6.960;2023-01-10T15:02:52;15.02;;;2.45;;
52386;SDS011;38317;53.084;6.960;2023-01-10T15:05:19;13.13;;;2.20;;
52386;SDS011;38317;53.084;6.960;2023-01-10T15:07:48;13.32;;;2.45;;
52386;SDS011;38317;53.084;6.960;2023-01-10T15:10:23;12.43;;;2.53;;
52386;SDS011;38317;53.084;6.960;2023-01-10T15:12:56;18.92;;;2.72;;
52386;SDS011;38317;53.084;6.960;2023-01-10T15:15:30;13.45;;;2.22;;
52386;SDS011;38317;53.084;6.960;2023-01-10T15:17:59;15.13;;;2.47;;
52386;SDS011;38317;53.084;6.960;2023-01-10T15:20:26;15.57;;;2.85;;
52386;SDS011;38317;53.084;6.960;2023-01-10T15:22:57;12.38;;;2.35;;
52386;SDS011;38317;53.084;6.960;2023-01-10T15:25:32;12.90;;;2.35;;
52386;SDS011;38317;53.084;6.960;2023-01-10T15:28:02;16.30;;;2.47;;
52386;SDS011;38317;53.084;6.960;2023-01-10T15:30:34;15.80;;;2.35;;
52386;SDS011;38317;53.084;6.960;2023-01-10T15:33:02;14.02;;;2.45;;
52386;SDS011;38317;53.084;6.960;2023-01-10T15:35:31;12.10;;;2.30;;
52386;SDS011;38317;53.084;6.960;2023-01-10T15:38:02;13.57;;;1.88;;
52386;SDS011;38317;53.084;6.960;2023-01-10T15:40:36;16.25;;;2.65;;
52386;SDS011;38317;53.084;6.960;2023-01-10T15:45:36;12.23;;;3.58;;
52386;SDS011;38317;53.084;6.960;2023-01-10T15:48:04;13.50;;;3.00;;
52386;SDS011;38317;53.084;6.960;2023-01-10T15:51:34;15.40;;;2.33;;
52386;SDS011;38317;53.084;6.960;2023-01-10T15:58:59;14.73;;;2.53;;
52386;SDS011;38317;53.084;6.960;2023-01-10T16:01:25;14.52;;;2.83;;
52386;SDS011;38317;53.084;6.960;2023-01-10T16:03:52;14.30;;;2.47;;
52386;SDS011;38317;53.084;6.960;2023-01-10T16:08:52;18.25;;;2.95;;
52386;SDS011;38317;53.084;6.960;2023-01-10T16:11:23;10.70;;;2.15;;
52386;SDS011;38317;53.084;6.960;2023-01-10T16:14:20;13.63;;;2.83;;
52386;SDS011;38317;53.084;6.960;2023-01-10T16:16:46;9.80;;;2.33;;
52386;SDS011;38317;53.084;6.960;2023-01-10T16:19:12;10.85;;;1.98;;
52386;SDS011;38317;53.084;6.960;2023-01-10T16:21:38;11.13;;;2.05;;
52386;SDS011;38317;53.084;6.960;2023-01-10T16:24:06;10.23;;;2.15;;
52386;SDS011;38317;53.084;6.960;2023-01-10T16:26:38;15.57;;;2.42;;
52386;SDS011;38317;53.084;6.960;2023-01-10T16:29:04;13.73;;;2.00;;
52386;SDS011;38317;53.084;6.960;2023-01-10T16:31:30;13.50;;;2.17;;
52386;SDS011;38317;53.084;6.960;2023-01-10T16:33:55;15.20;;;2.40;;
52386;SDS011;38317;53.084;6.960;2023-01-10T16:36:21;8.65;;;1.58;;
52386;SDS011;38317;53.084;6.960;2023-01-10T16:38:47;9.88;;;1.83;;
52386;SDS011;38317;53.084;6.960;2023-01-10T16:41:13;13.60;;;2.05;;
52386;SDS011;38317;53.084;6.960;2023-01-10T16:43:58;10.30;;;2.17;;
52386;SDS011;38317;53.084;6.960;2023-01-10T16:46:24;15.88;;;2.25;;
52386;SDS011;38317;53.084;6.960;2023-01-10T16:48:50;16.30;;;2.00;;
52386;SDS011;38317;53.084;6.960;2023-01-10T16:53:46;17.15;;;2.63;;
52386;SDS011;38317;53.084;6.960;2023-01-10T16:56:13;14.90;;;2.45;;
52386;SDS011;38317;53.084;6.960;2023-01-10T16:58:40;14.10;;;1.98;;
52386;SDS011;38317;53.084;6.960;2023-01-10T17:01:08;12.20;;;2.17;;
52386;SDS011;38317;53.084;6.960;2023-01-10T17:03:39;18.58;;;2.88;;
52386;SDS011;38317;53.084;6.960;2023-01-10T17:06:04;13.25;;;1.98;;
52386;SDS011;38317;53.084;6.960;2023-01-10T17:08:30;10.30;;;1.65;;
52386;SDS011;38317;53.084;6.960;2023-01-10T17:11:00;15.35;;;2.17;;
52386;SDS011;38317;53.084;6.960;2023-01-10T17:13:29;12.77;;;2.60;;